createdAt,value
2022-12-04T00:01:23.817Z,13.13
2022-12-04T00:03:59.682Z,16.07
2022-12-04T00:06:27.257Z,13.47
2022-12-04T00:08:56.862Z,12.30
2022-12-04T00:11:27.214Z,14.80
2022-12-04T00:14:01.609Z,13.20
2022-12-04T00:16:33.158Z,14.37
2022-12-04T00:18:59.993Z,13.30
2022-12-04T00:21:31.471Z,13.80
2022-12-04T00:24:00.354Z,13.80
2022-12-04T00:26:29.080Z,12.63
2022-12-04T00:28:58.053Z,12.90
2022-12-04T00:31:30.338Z,12.90
2022-12-04T00:33:58.527Z,12.97
2022-12-04T00:36:27.847Z,13.13
2022-12-04T00:38:54.964Z,13.50
2022-12-04T00:41:26.072Z,13.37
2022-12-04T00:43:55.384Z,13.63
2022-12-04T00:46:25.081Z,13.67
2022-12-04T00:48:54.608Z,13.17
2022-12-04T00:51:24.318Z,13.13
2022-12-04T00:53:52.886Z,13.97
2022-12-04T00:56:26.303Z,14.37
2022-12-04T00:58:59.746Z,14.00
2022-12-04T01:01:27.257Z,13.60
2022-12-04T01:03:57.550Z,14.30
2022-12-04T01:06:27.490Z,12.13
2022-12-04T01:09:00.966Z,13.87
2022-12-04T01:11:29.394Z,15.10
2022-12-04T01:13:57.062Z,12.37
2022-12-04T01:16:27.872Z,14.20
2022-12-04T01:18:54.598Z,14.33
2022-12-04T01:21:21.419Z,13.73
2022-12-04T01:23:48.719Z,13.37
2022-12-04T01:26:15.850Z,12.83
2022-12-04T01:28:42.614Z,13.97
2022-12-04T01:31:15.166Z,13.80
2022-12-04T01:33:45.777Z,13.37
2022-12-04T01:36:15.473Z,15.15
2022-12-04T01:38:44.875Z,14.10
2022-12-04T01:41:16.491Z,13.17
2022-12-04T01:43:46.031Z,13.23
2022-12-04T01:46:12.857Z,14.57
2022-12-04T01:48:55.773Z,14.27
2022-12-04T01:51:34.240Z,15.17
2022-12-04T01:54:16.871Z,14.87
2022-12-04T01:56:54.133Z,15.53
2022-12-04T01:59:28.689Z,15.63
2022-12-04T02:02:07.121Z,15.70
2022-12-04T02:04:35.662Z,15.33
2022-12-04T02:07:02.569Z,15.90
2022-12-04T02:09:30.809Z,15.63
2022-12-04T02:12:10.707Z,16.50
2022-12-04T02:14:46.252Z,16.07
2022-12-04T02:17:38.315Z,17.87
2022-12-04T02:20:14.490Z,15.60
2022-12-04T02:22:59.542Z,16.73
2022-12-04T02:25:28.370Z,17.33
2022-12-04T02:27:55.008Z,16.23
2022-12-04T02:30:21.927Z,16.20
2022-12-04T02:32:57.124Z,14.27
2022-12-04T02:35:32.197Z,16.80
2022-12-04T02:38:21.223Z,14.50
2022-12-04T02:41:03.181Z,16.93
2022-12-04T02:43:40.300Z,14.07
2022-12-04T02:46:24.845Z,17.10
2022-12-04T02:48:55.963Z,17.70
2022-12-04T02:51:24.755Z,17.50
2022-12-04T02:53:56.770Z,16.67
2022-12-04T02:56:32.504Z,15.60
2022-12-04T02:59:09.023Z,14.93
2022-12-04T03:01:41.170Z,13.87
2022-12-04T03:04:19.802Z,15.67
2022-12-04T03:06:54.213Z,15.30
2022-12-04T03:09:29.177Z,16.23
2022-12-04T03:12:07.490Z,13.80
2022-12-04T03:14:38.739Z,13.93
2022-12-04T03:17:12.334Z,13.77
2022-12-04T03:19:59.191Z,16.40
2022-12-04T03:22:26.781Z,13.83
2022-12-04T03:24:55.603Z,15.43
2022-12-04T03:27:45.731Z,14.13
2022-12-04T03:30:16.381Z,14.63
2022-12-04T03:33:09.936Z,14.73
2022-12-04T03:36:11.769Z,13.27
2022-12-04T03:38:38.462Z,15.17
2022-12-04T03:44:03.471Z,12.63
2022-12-04T03:46:41.120Z,14.25
2022-12-04T03:49:12.825Z,14.33
2022-12-04T03:51:49.598Z,12.60
2022-12-04T03:54:28.623Z,14.43
2022-12-04T03:57:23.065Z,14.07
2022-12-04T03:59:58.521Z,13.97
2022-12-04T04:02:32.942Z,14.23
2022-12-04T04:05:06.923Z,12.80
2022-12-04T04:07:55.939Z,14.57
2022-12-04T04:10:26.394Z,14.02
2022-12-04T04:13:18.822Z,14.20
2022-12-04T04:16:09.631Z,12.73
2022-12-04T04:18:58.476Z,13.83
2022-12-04T04:21:50.904Z,13.10
2022-12-04T04:24:45.904Z,15.15
2022-12-04T04:27:13.129Z,14.23
2022-12-04T04:29:41.370Z,13.63
2022-12-04T04:32:28.286Z,14.20
2022-12-04T04:35:09.535Z,13.30
2022-12-04T04:37:44.981Z,16.20
2022-12-04T04:40:24.148Z,15.43
2022-12-04T04:43:13.073Z,13.40
2022-12-04T04:45:50.469Z,15.37
2022-12-04T04:48:26.008Z,15.27
2022-12-04T04:50:53.453Z,16.17
2022-12-04T04:53:24.917Z,14.60
2022-12-04T04:55:51.595Z,15.67
2022-12-04T04:58:20.414Z,15.00
2022-12-04T05:01:14.898Z,13.07
2022-12-04T05:03:44.356Z,13.70
2022-12-04T05:06:11.046Z,14.10
2022-12-04T05:08:37.968Z,12.73
2022-12-04T05:11:05.671Z,15.70
2022-12-04T05:13:33.315Z,12.70
2022-12-04T05:16:05.509Z,15.67
2022-12-04T05:18:35.372Z,13.13
2022-12-04T05:21:20.233Z,14.30
2022-12-04T05:23:46.885Z,14.87
2022-12-04T05:26:15.795Z,13.57
2022-12-04T05:28:44.800Z,13.87
2022-12-04T05:31:11.596Z,12.17
2022-12-04T05:33:38.349Z,13.63
2022-12-04T05:36:11.595Z,11.87
2022-12-04T05:38:40.624Z,12.70
2022-12-04T05:41:07.822Z,12.65
2022-12-04T05:43:35.394Z,13.43
2022-12-04T05:46:04.547Z,13.33
2022-12-04T05:48:31.712Z,13.17
2022-12-04T05:51:00.926Z,13.60
2022-12-04T05:53:27.626Z,15.27
2022-12-04T05:55:56.484Z,14.47
2022-12-04T05:58:23.361Z,14.37
2022-12-04T06:00:52.881Z,13.33
2022-12-04T06:03:20.021Z,14.53
2022-12-04T06:05:49.526Z,14.63
2022-12-04T06:08:18.962Z,12.67
2022-12-04T06:10:45.662Z,12.63
2022-12-04T06:13:17.142Z,10.13
2022-12-04T06:15:46.016Z,12.60
2022-12-04T06:18:15.219Z,11.67
2022-12-04T06:20:42.012Z,10.83
2022-12-04T06:23:08.775Z,12.43
2022-12-04T06:25:35.419Z,12.30
2022-12-04T06:28:02.102Z,12.30
2022-12-04T06:30:30.255Z,12.00
2022-12-04T06:32:56.965Z,11.63
2022-12-04T06:35:25.810Z,11.97
2022-12-04T06:37:54.703Z,11.77
2022-12-04T06:40:21.404Z,10.93
2022-12-04T06:42:48.112Z,12.02
2022-12-04T06:45:15.199Z,10.83
2022-12-04T06:47:41.840Z,11.53
2022-12-04T06:50:08.855Z,10.87
2022-12-04T06:52:35.595Z,13.10
2022-12-04T06:55:02.357Z,12.47
2022-12-04T06:57:29.011Z,12.52
2022-12-04T06:59:58.194Z,11.47
2022-12-04T07:02:27.479Z,12.53
2022-12-04T07:04:57.524Z,9.93
2022-12-04T07:07:24.219Z,12.23
2022-12-04T07:09:50.900Z,10.70
2022-12-04T07:12:19.868Z,11.67
2022-12-04T07:14:46.553Z,11.63
2022-12-04T07:17:13.236Z,11.10
2022-12-04T07:19:39.983Z,11.50
2022-12-04T07:22:09.360Z,11.17
2022-12-04T07:24:38.872Z,8.87
2022-12-04T07:27:05.615Z,9.80
2022-12-04T07:29:32.423Z,11.10
2022-12-04T07:31:59.135Z,10.23
2022-12-04T07:34:25.905Z,13.93
2022-12-04T07:36:52.541Z,9.90
2022-12-04T07:39:19.309Z,10.87
2022-12-04T07:41:48.350Z,11.23
2022-12-04T07:44:15.069Z,10.57
2022-12-04T07:46:42.663Z,10.83
2022-12-04T07:49:14.470Z,10.17
2022-12-04T07:51:43.766Z,12.67
2022-12-04T07:54:10.475Z,11.53
2022-12-04T07:56:37.212Z,11.20
2022-12-04T07:59:06.020Z,12.00
2022-12-04T08:01:33.072Z,12.20
2022-12-04T08:04:02.931Z,14.00
2022-12-04T08:06:32.790Z,18.13
2022-12-04T08:09:02.405Z,14.37
2022-12-04T08:11:32.281Z,15.73
2022-12-04T08:14:04.500Z,16.85
2022-12-04T08:16:35.571Z,17.50
2022-12-04T08:19:03.326Z,15.43
2022-12-04T08:21:32.991Z,11.63
2022-12-04T08:24:00.482Z,10.30
2022-12-04T08:26:31.985Z,12.43
2022-12-04T08:29:03.988Z,12.30
2022-12-04T08:31:33.038Z,13.40
2022-12-04T08:34:01.779Z,11.83
2022-12-04T08:36:31.434Z,15.47
2022-12-04T08:38:58.188Z,13.70
2022-12-04T08:41:26.430Z,14.67
2022-12-04T08:43:55.222Z,11.63
2022-12-04T08:46:23.574Z,11.47
2022-12-04T08:48:58.231Z,15.03
2022-12-04T08:51:27.611Z,14.27
2022-12-04T08:53:58.203Z,14.55
2022-12-04T08:56:26.506Z,12.37
2022-12-04T08:58:55.496Z,13.57
2022-12-04T09:01:22.342Z,12.50
2022-12-04T09:03:49.225Z,14.20
2022-12-04T09:06:18.579Z,14.53
2022-12-04T09:08:45.450Z,14.57
2022-12-04T09:11:19.629Z,15.67
2022-12-04T09:13:49.137Z,15.97
2022-12-04T09:16:19.115Z,13.27
2022-12-04T09:18:46.063Z,14.83
2022-12-04T09:21:17.110Z,13.93
2022-12-04T09:23:44.018Z,14.50
2022-12-04T09:26:37.420Z,14.67
2022-12-04T09:29:07.876Z,15.60
2022-12-04T09:31:36.131Z,60.90
2022-12-04T09:34:03.607Z,71.47
2022-12-04T09:36:30.731Z,53.27
2022-12-04T09:38:57.853Z,50.97
2022-12-04T09:41:38.827Z,42.33
2022-12-04T09:44:25.798Z,25.33
2022-12-04T09:47:12.153Z,25.27
2022-12-04T09:49:47.777Z,29.10
2022-12-04T09:52:58.870Z,23.43
2022-12-04T09:55:30.456Z,26.47
2022-12-04T09:58:02.624Z,24.27
2022-12-04T10:00:31.718Z,36.03
2022-12-04T10:03:06.802Z,21.33
2022-12-04T10:05:58.816Z,22.70
2022-12-04T10:08:29.337Z,21.17
2022-12-04T10:11:06.426Z,19.77
2022-12-04T10:13:41.957Z,20.10
2022-12-04T10:16:15.812Z,15.20
2022-12-04T10:19:00.927Z,16.80
2022-12-04T10:21:33.658Z,17.50
2022-12-04T10:24:03.320Z,19.43
2022-12-04T10:26:36.514Z,15.80
2022-12-04T10:29:12.640Z,17.17
2022-12-04T10:31:42.616Z,16.57
2022-12-04T10:34:19.900Z,15.30
2022-12-04T10:36:51.950Z,16.03
2022-12-04T10:39:41.591Z,14.30
2022-12-04T10:42:28.112Z,14.33
2022-12-04T10:44:57.559Z,16.27
2022-12-04T10:47:25.171Z,13.82
2022-12-04T10:50:04.869Z,12.40
2022-12-04T10:52:31.520Z,18.50
2022-12-04T10:55:00.218Z,14.33
2022-12-04T10:57:46.172Z,22.43
2022-12-04T11:00:28.285Z,25.87
2022-12-04T11:02:57.537Z,16.17
2022-12-04T11:05:34.860Z,12.20
2022-12-04T11:08:08.723Z,13.23
2022-12-04T11:10:43.611Z,14.77
2022-12-04T11:13:16.993Z,16.90
2022-12-04T11:15:55.024Z,13.73
2022-12-04T11:18:24.169Z,12.67
2022-12-04T11:20:54.500Z,16.37
2022-12-04T11:23:21.970Z,12.70
2022-12-04T11:25:52.050Z,14.57
2022-12-04T11:28:40.171Z,14.17
2022-12-04T11:31:12.903Z,12.53
2022-12-04T11:33:47.784Z,16.33
2022-12-04T11:36:24.771Z,13.03
2022-12-04T11:38:54.378Z,12.47
2022-12-04T11:41:32.470Z,13.23
2022-12-04T11:44:00.869Z,13.20
2022-12-04T11:46:33.977Z,14.40
2022-12-04T11:49:03.273Z,12.47
2022-12-04T11:51:29.951Z,13.33
2022-12-04T11:53:58.692Z,12.40
2022-12-04T11:56:35.657Z,12.73
2022-12-04T11:59:27.133Z,12.07
2022-12-04T12:02:05.984Z,13.50
2022-12-04T12:04:42.039Z,12.17
2022-12-04T12:07:22.117Z,12.37
2022-12-04T12:10:19.029Z,12.57
2022-12-04T12:13:03.738Z,13.17
2022-12-04T12:16:12.725Z,13.13
2022-12-04T12:18:39.362Z,12.47
2022-12-04T12:21:15.889Z,12.47
2022-12-04T12:23:56.321Z,12.53
2022-12-04T12:26:36.538Z,12.73
2022-12-04T12:29:10.205Z,11.87
2022-12-04T12:31:45.841Z,10.70
2022-12-04T12:34:32.693Z,12.67
2022-12-04T12:37:08.363Z,11.83
2022-12-04T12:39:48.181Z,12.40
2022-12-04T12:42:21.749Z,13.93
2022-12-04T12:45:16.525Z,11.97
2022-12-04T12:47:49.070Z,11.60
2022-12-04T12:50:25.728Z,12.23
2022-12-04T12:53:21.909Z,12.77
2022-12-04T12:55:58.229Z,13.18
2022-12-04T12:58:48.425Z,12.60
2022-12-04T13:01:26.376Z,10.63
2022-12-04T13:04:16.952Z,12.00
2022-12-04T13:06:45.657Z,11.70
2022-12-04T13:09:20.861Z,11.13
2022-12-04T13:11:50.422Z,11.60
2022-12-04T13:14:17.225Z,11.50
2022-12-04T13:16:52.101Z,12.47
2022-12-04T13:19:26.956Z,11.23
2022-12-04T13:22:14.193Z,11.17
2022-12-04T13:24:58.841Z,11.40
2022-12-04T13:28:26.869Z,10.40
2022-12-04T13:30:58.676Z,10.60
2022-12-04T13:33:40.227Z,12.10
2022-12-04T13:36:11.903Z,11.07
2022-12-04T13:39:14.423Z,11.13
2022-12-04T13:41:48.355Z,11.30
2022-12-04T13:44:22.271Z,12.47
2022-12-04T13:46:57.434Z,10.73
2022-12-04T13:49:34.156Z,11.97
2022-12-04T13:52:03.943Z,11.90
2022-12-04T13:54:36.417Z,10.40
2022-12-04T13:57:17.628Z,12.40
2022-12-04T13:59:45.056Z,12.47
2022-12-04T14:02:27.684Z,10.47
2022-12-04T14:05:04.097Z,11.03
2022-12-04T14:07:30.710Z,12.67
2022-12-04T14:10:04.552Z,11.10
2022-12-04T14:12:40.433Z,12.03
2022-12-04T14:15:20.471Z,14.10
2022-12-04T14:18:15.748Z,14.00
2022-12-04T14:20:44.576Z,13.80
2022-12-04T14:23:19.932Z,12.20
2022-12-04T14:25:55.184Z,15.23
2022-12-04T14:28:42.565Z,12.77
2022-12-04T14:31:09.529Z,14.47
2022-12-04T14:33:46.642Z,16.00
2022-12-04T14:36:25.172Z,16.60
2022-12-04T14:39:17.228Z,15.77
2022-12-04T14:41:43.981Z,16.43
2022-12-04T14:44:30.643Z,15.23
2022-12-04T14:47:15.482Z,15.67
2022-12-04T14:50:15.231Z,19.37
2022-12-04T14:53:10.662Z,14.67
2022-12-04T14:55:51.789Z,16.27
2022-12-04T14:58:30.966Z,17.20
2022-12-04T15:01:00.083Z,14.17
2022-12-04T15:03:30.086Z,14.33
2022-12-04T15:06:06.799Z,18.30
2022-12-04T15:08:34.363Z,14.07
2022-12-04T15:11:19.624Z,16.27
2022-12-04T15:13:46.380Z,16.20
2022-12-04T15:16:18.300Z,13.50
2022-12-04T15:18:59.482Z,15.93
2022-12-04T15:21:40.929Z,13.50
2022-12-04T15:24:09.660Z,15.00
2022-12-04T15:26:37.665Z,15.33
2022-12-04T15:29:07.306Z,13.97
2022-12-04T15:31:49.125Z,13.93
2022-12-04T15:34:20.519Z,13.83
2022-12-04T15:37:08.760Z,12.83
2022-12-04T15:39:39.099Z,12.77
2022-12-04T15:42:21.706Z,14.80
2022-12-04T15:45:03.376Z,13.50
2022-12-04T15:47:55.820Z,14.57
2022-12-04T15:50:28.503Z,15.47
2022-12-04T15:53:15.953Z,14.88
2022-12-04T15:55:55.989Z,14.53
2022-12-04T15:58:27.661Z,14.00
2022-12-04T16:01:01.099Z,13.77
2022-12-04T16:03:31.984Z,15.43
2022-12-04T16:06:05.963Z,15.23
2022-12-04T16:08:36.345Z,10.60
2022-12-04T16:11:06.008Z,14.03
2022-12-04T16:13:36.303Z,14.27
2022-12-04T16:16:14.892Z,15.60
2022-12-04T16:18:43.199Z,12.67
2022-12-04T16:21:17.997Z,13.13
2022-12-04T16:23:45.169Z,10.80
2022-12-04T16:26:17.085Z,17.03
2022-12-04T16:28:46.392Z,14.00
2022-12-04T16:31:13.831Z,13.13
2022-12-04T16:33:42.994Z,12.20
2022-12-04T16:36:12.668Z,12.20
2022-12-04T16:38:41.858Z,12.93
2022-12-04T16:41:16.926Z,11.30
2022-12-04T16:43:46.318Z,12.97
2022-12-04T16:46:15.618Z,11.10
2022-12-04T16:48:43.259Z,13.43
2022-12-04T16:51:18.105Z,11.50
2022-12-04T16:53:47.222Z,12.47
2022-12-04T16:56:16.406Z,10.23
2022-12-04T16:58:43.852Z,11.53
2022-12-04T17:01:26.382Z,12.50
2022-12-04T17:03:53.236Z,12.93
2022-12-04T17:06:23.272Z,11.57
2022-12-04T17:08:49.970Z,12.97
2022-12-04T17:11:19.904Z,12.07
2022-12-04T17:13:46.591Z,11.87
2022-12-04T17:16:19.556Z,11.17
2022-12-04T17:18:46.686Z,11.37
2022-12-04T17:21:15.919Z,12.33
2022-12-04T17:23:45.681Z,11.90
2022-12-04T17:26:14.730Z,10.70
2022-12-04T17:28:44.128Z,11.20
2022-12-04T17:31:17.406Z,10.17
2022-12-04T17:33:47.404Z,11.93
2022-12-04T17:36:17.028Z,10.13
2022-12-04T17:38:45.958Z,12.40
2022-12-04T17:41:16.903Z,14.00
2022-12-04T17:43:48.857Z,16.37
2022-12-04T17:46:24.547Z,13.43
2022-12-04T17:48:56.153Z,12.37
2022-12-04T17:51:27.931Z,12.83
2022-12-04T17:53:54.893Z,12.97
2022-12-04T17:56:25.739Z,12.33
2022-12-04T17:58:53.300Z,11.93
2022-12-04T18:01:29.255Z,23.15
2022-12-04T18:03:58.554Z,14.13
2022-12-04T18:06:28.110Z,13.43
2022-12-04T18:08:55.605Z,8.87
2022-12-04T18:11:24.962Z,11.30
2022-12-04T18:13:59.866Z,13.03
2022-12-04T18:16:29.882Z,13.63
2022-12-04T18:18:58.179Z,14.97
2022-12-04T18:21:27.788Z,14.50
2022-12-04T18:23:58.290Z,13.47
2022-12-04T18:26:30.056Z,14.57
2022-12-04T18:28:59.368Z,15.47
2022-12-04T18:31:26.429Z,13.43
2022-12-04T18:33:55.586Z,14.37
2022-12-04T18:36:25.458Z,13.77
2022-12-04T18:39:21.727Z,12.00
2022-12-04T18:41:48.890Z,14.10
2022-12-04T18:44:18.808Z,12.00
2022-12-04T18:46:45.747Z,13.53
2022-12-04T18:49:12.782Z,13.07
2022-12-04T18:51:48.578Z,12.00
2022-12-04T18:54:19.876Z,14.40
2022-12-04T18:56:46.775Z,12.27
2022-12-04T18:59:21.383Z,12.00
2022-12-04T19:01:50.259Z,11.67
2022-12-04T19:04:18.611Z,13.45
2022-12-04T19:06:47.842Z,15.90
2022-12-04T19:09:20.110Z,12.70
2022-12-04T19:11:49.404Z,13.17
2022-12-04T19:14:23.516Z,12.60
2022-12-04T19:16:56.053Z,11.67
2022-12-04T19:19:25.336Z,11.47
2022-12-04T19:21:56.626Z,13.27
2022-12-04T19:24:28.061Z,13.90
2022-12-04T19:26:55.450Z,14.20
2022-12-04T19:29:24.421Z,13.37
2022-12-04T19:31:58.856Z,14.40
2022-12-04T19:34:28.667Z,17.33
2022-12-04T19:36:55.472Z,16.17
2022-12-04T19:39:22.257Z,12.70
2022-12-04T19:41:48.998Z,15.93
2022-12-04T19:44:47.438Z,13.10
2022-12-04T19:47:04.876Z,13.90
2022-12-04T19:49:31.655Z,13.27
2022-12-04T19:51:58.355Z,17.00
2022-12-04T19:54:25.989Z,14.13
2022-12-04T19:56:52.769Z,14.47
2022-12-04T19:59:22.090Z,16.97
2022-12-04T20:01:51.116Z,13.50
2022-12-04T20:04:20.429Z,14.23
2022-12-04T20:06:47.388Z,13.37
2022-12-04T20:09:20.313Z,14.10
2022-12-04T20:11:47.564Z,13.87
2022-12-04T20:14:14.405Z,15.50
2022-12-04T20:16:42.057Z,13.70
2022-12-04T20:19:16.501Z,13.50
2022-12-04T20:21:44.733Z,13.68
2022-12-04T20:24:14.431Z,13.83
2022-12-04T20:26:43.017Z,13.67
2022-12-04T20:29:15.485Z,13.80
2022-12-04T20:31:44.795Z,13.57
2022-12-04T20:34:20.221Z,14.70
2022-12-04T20:36:48.498Z,13.33
2022-12-04T20:39:16.767Z,13.87
2022-12-04T20:41:43.525Z,12.17
2022-12-04T20:44:14.333Z,14.27
2022-12-04T20:46:42.475Z,12.67
2022-12-04T20:49:17.219Z,13.67
2022-12-04T20:51:47.983Z,15.00
2022-12-04T20:54:18.167Z,13.13
2022-12-04T20:56:48.926Z,11.67
2022-12-04T20:59:18.112Z,12.80
2022-12-04T21:01:44.893Z,14.00
2022-12-04T21:04:12.977Z,14.43
2022-12-04T21:06:40.980Z,14.27
2022-12-04T21:09:12.736Z,13.07
2022-12-04T21:11:46.902Z,11.90
2022-12-04T21:14:36.134Z,11.93
2022-12-04T21:17:14.363Z,14.00
2022-12-04T21:19:40.998Z,15.30
2022-12-04T21:22:10.283Z,12.07
2022-12-04T21:24:39.092Z,13.67
2022-12-04T21:27:09.724Z,15.23
2022-12-04T21:29:39.383Z,13.73
2022-12-04T21:32:08.921Z,16.60
2022-12-04T21:34:35.824Z,13.57
2022-12-04T21:37:02.446Z,13.80
2022-12-04T21:39:29.168Z,14.43
2022-12-04T21:42:16.839Z,14.00
2022-12-04T21:44:48.227Z,13.90
2022-12-04T21:47:14.857Z,12.53
2022-12-04T21:49:41.561Z,16.30
2022-12-04T21:52:10.622Z,14.30
2022-12-04T21:54:39.905Z,11.70
2022-12-04T21:57:06.515Z,13.90
2022-12-04T21:59:38.192Z,14.77
2022-12-04T22:02:07.688Z,13.27
2022-12-04T22:04:34.366Z,13.23
2022-12-04T22:07:01.181Z,12.73
2022-12-04T22:09:27.903Z,14.43
2022-12-04T22:11:54.569Z,13.13
2022-12-04T22:14:21.333Z,13.47
2022-12-04T22:16:51.332Z,14.20
2022-12-04T22:19:20.306Z,14.03
2022-12-04T22:21:47.162Z,13.10
2022-12-04T22:24:13.869Z,11.60
2022-12-04T22:26:40.600Z,11.47
2022-12-04T22:29:42.011Z,12.23
2022-12-04T22:31:58.915Z,12.93
2022-12-04T22:34:25.619Z,13.07
2022-12-04T22:36:52.303Z,10.87
2022-12-04T22:39:21.390Z,12.10
2022-12-04T22:41:48.182Z,12.27
2022-12-04T22:44:17.028Z,11.67
2022-12-04T22:46:43.820Z,11.47
2022-12-04T22:49:10.521Z,13.03
2022-12-04T22:51:39.660Z,11.80
2022-12-04T22:54:07.981Z,14.20
2022-12-04T22:56:34.648Z,11.47
2022-12-04T22:59:01.406Z,12.63
2022-12-04T23:01:33.066Z,10.10
2022-12-04T23:04:00.972Z,12.80
2022-12-04T23:06:29.785Z,13.67
2022-12-04T23:08:59.399Z,10.17
2022-12-04T23:11:27.108Z,11.33
2022-12-04T23:14:01.337Z,12.13
2022-12-04T23:16:30.429Z,13.70
2022-12-04T23:18:59.797Z,12.93
2022-12-04T23:21:27.883Z,12.07
2022-12-04T23:23:57.761Z,12.53
2022-12-04T23:26:30.025Z,11.40
2022-12-04T23:28:57.072Z,10.03
2022-12-04T23:31:24.704Z,10.73
2022-12-04T23:33:54.621Z,12.27
2022-12-04T23:36:21.618Z,12.03
2022-12-04T23:38:50.973Z,10.43
2022-12-04T23:41:23.511Z,12.90
2022-12-04T23:43:51.718Z,8.30
2022-12-04T23:46:22.857Z,10.10
2022-12-04T23:48:50.002Z,9.77
2022-12-04T23:51:18.489Z,8.93
2022-12-04T23:53:45.762Z,8.57
2022-12-04T23:56:18.203Z,9.23
2022-12-04T23:58:47.460Z,11.03
